sensor_id;sensor_type;location;lat;lon;timestamp;pressure;altitude;pressure_sealevel;temperature;humidity
55759;BME280;41678;52.126;20.664;2023-03-04T00:02:27;100048.94;;;-0.24;95.72
55759;BME280;41678;52.126;20.664;2023-03-04T00:07:47;100043.69;;;-0.27;95.43
55759;BME280;41678;52.126;20.664;2023-03-04T00:13:06;100049.00;;;-0.23;95.56
55759;BME280;41678;52.126;20.664;2023-03-04T00:18:26;100046.50;;;-0.20;95.45
55759;BME280;41678;52.126;20.664;2023-03-04T00:23:45;100035.31;;;-0.19;95.61
55759;BME280;41678;52.126;20.664;2023-03-04T00:29:04;100024.97;;;-0.19;95.70
55759;BME280;41678;52.126;20.664;2023-03-04T00:34:24;100011.09;;;-0.22;95.24
55759;BME280;41678;52.126;20.664;2023-03-04T00:39:43;99992.06;;;-0.23;95.64
55759;BME280;41678;52.126;20.664;2023-03-04T00:45:04;100007.75;;;-0.17;95.70
55759;BME280;41678;52.126;20.664;2023-03-04T00:50:23;99983.47;;;-0.22;95.82
55759;BME280;41678;52.126;20.664;2023-03-04T00:55:43;99971.38;;;-0.23;95.99
55759;BME280;41678;52.126;20.664;2023-03-04T01:01:02;99977.53;;;-0.18;95.63
55759;BME280;41678;52.126;20.664;2023-03-04T01:06:22;99962.00;;;-0.18;95.92
55759;BME280;41678;52.126;20.664;2023-03-04T01:11:41;99969.06;;;-0.12;95.80
55759;BME280;41678;52.126;20.664;2023-03-04T01:17:01;99962.00;;;-0.18;95.63
55759;BME280;41678;52.126;20.664;2023-03-04T01:22:20;99965.34;;;-0.22;95.89
55759;BME280;41678;52.126;20.664;2023-03-04T01:27:40;99948.03;;;-0.24;96.28
55759;BME280;41678;52.126;20.664;2023-03-04T01:32:59;99947.19;;;-0.25;96.01
55759;BME280;41678;52.126;20.664;2023-03-04T01:38:19;99933.44;;;-0.22;96.14
55759;BME280;41678;52.126;20.664;2023-03-04T01:43:38;99903.22;;;-0.23;96.13
55759;BME280;41678;52.126;20.664;2023-03-04T01:48:58;99845.34;;;-0.27;96.19
55759;BME280;41678;52.126;20.664;2023-03-04T01:54:20;99835.06;;;-0.24;95.74
55759;BME280;41678;52.126;20.664;2023-03-04T01:59:40;99833.25;;;-0.28;95.68
55759;BME280;41678;52.126;20.664;2023-03-04T02:05:00;99818.59;;;-0.27;95.70
55759;BME280;41678;52.126;20.664;2023-03-04T02:10:20;99812.63;;;-0.25;96.06
55759;BME280;41678;52.126;20.664;2023-03-04T02:15:40;99799.63;;;-0.28;96.00
55759;BME280;41678;52.126;20.664;2023-03-04T02:21:16;99779.09;;;-0.20;96.32
55759;BME280;41678;52.126;20.664;2023-03-04T02:26:37;99755.78;;;-0.22;96.60
55759;BME280;41678;52.126;20.664;2023-03-04T02:32:00;99748.91;;;-0.20;96.26
55759;BME280;41678;52.126;20.664;2023-03-04T02:37:20;99749.81;;;-0.18;96.88
55759;BME280;41678;52.126;20.664;2023-03-04T02:42:44;99750.81;;;-0.12;96.53
55759;BME280;41678;52.126;20.664;2023-03-04T02:48:06;99757.81;;;-0.08;96.41
55759;BME280;41678;52.126;20.664;2023-03-04T02:53:26;99778.50;;;-0.08;96.47
55759;BME280;41678;52.126;20.664;2023-03-04T02:58:45;99776.91;;;-0.03;96.20
55759;BME280;41678;52.126;20.664;2023-03-04T03:04:05;99779.59;;;0.00;96.84
55759;BME280;41678;52.126;20.664;2023-03-04T03:09:27;99769.25;;;0.02;96.24
55759;BME280;41678;52.126;20.664;2023-03-04T03:14:48;99771.91;;;0.05;96.26
55759;BME280;41678;52.126;20.664;2023-03-04T03:20:12;99782.44;;;0.12;96.22
55759;BME280;41678;52.126;20.664;2023-03-04T03:25:32;99766.03;;;0.12;96.18
55759;BME280;41678;52.126;20.664;2023-03-04T03:30:52;99769.41;;;0.09;96.51
55759;BME280;41678;52.126;20.664;2023-03-04T03:36:12;99759.22;;;0.16;96.70
55759;BME280;41678;52.126;20.664;2023-03-04T03:41:32;99759.38;;;0.23;96.06
55759;BME280;41678;52.126;20.664;2023-03-04T03:46:51;99744.66;;;0.21;96.38
55759;BME280;41678;52.126;20.664;2023-03-04T03:52:11;99741.28;;;0.25;96.45
55759;BME280;41678;52.126;20.664;2023-03-04T03:57:31;99749.09;;;0.28;96.46
55759;BME280;41678;52.126;20.664;2023-03-04T04:02:52;99748.41;;;0.35;95.94
55759;BME280;41678;52.126;20.664;2023-03-04T04:08:13;99750.16;;;0.36;96.33
55759;BME280;41678;52.126;20.664;2023-03-04T04:13:32;99751.84;;;0.34;96.69
55759;BME280;41678;52.126;20.664;2023-03-04T04:18:52;99752.88;;;0.42;96.34
55759;BME280;41678;52.126;20.664;2023-03-04T04:24:11;99748.69;;;0.48;96.56
55759;BME280;41678;52.126;20.664;2023-03-04T04:29:31;99738.31;;;0.48;96.35
55759;BME280;41678;52.126;20.664;2023-03-04T04:34:50;99736.53;;;0.45;95.94
55759;BME280;41678;52.126;20.664;2023-03-04T04:40:10;99742.75;;;0.53;96.20
55759;BME280;41678;52.126;20.664;2023-03-04T04:45:31;99728.84;;;0.50;96.31
55759;BME280;41678;52.126;20.664;2023-03-04T04:50:54;99729.88;;;0.58;96.17
55759;BME280;41678;52.126;20.664;2023-03-04T04:56:17;99720.34;;;0.55;96.00
55759;BME280;41678;52.126;20.664;2023-03-04T05:01:38;99717.00;;;0.61;96.38
55759;BME280;41678;52.126;20.664;2023-03-04T05:06:57;99711.72;;;0.56;96.14
55759;BME280;41678;52.126;20.664;2023-03-04T05:12:17;99714.31;;;0.56;95.89
55759;BME280;41678;52.126;20.664;2023-03-04T05:17:37;99713.50;;;0.61;95.77
55759;BME280;41678;52.126;20.664;2023-03-04T05:22:56;99710.09;;;0.62;95.66
55759;BME280;41678;52.126;20.664;2023-03-04T05:28:17;99705.78;;;0.62;95.77
55759;BME280;41678;52.126;20.664;2023-03-04T05:33:37;99704.94;;;0.65;95.79
55759;BME280;41678;52.126;20.664;2023-03-04T05:38:56;99698.88;;;0.63;95.67
55759;BME280;41678;52.126;20.664;2023-03-04T05:44:16;99705.00;;;0.66;95.93
55759;BME280;41678;52.126;20.664;2023-03-04T05:49:36;99705.00;;;0.66;95.81
55759;BME280;41678;52.126;20.664;2023-03-04T05:54:55;99703.34;;;0.72;95.55
55759;BME280;41678;52.126;20.664;2023-03-04T06:00:15;99688.66;;;0.70;95.69
55759;BME280;41678;52.126;20.664;2023-03-04T06:05:35;99683.47;;;0.70;95.60
55759;BME280;41678;52.126;20.664;2023-03-04T06:10:55;99688.78;;;0.77;95.56
55759;BME280;41678;52.126;20.664;2023-03-04T06:16:15;99685.22;;;0.72;95.71
55759;BME280;41678;52.126;20.664;2023-03-04T06:21:35;99678.28;;;0.70;95.59
55759;BME280;41678;52.126;20.664;2023-03-04T06:26:54;99685.25;;;0.75;95.81
55759;BME280;41678;52.126;20.664;2023-03-04T06:32:14;99682.72;;;0.76;95.69
55759;BME280;41678;52.126;20.664;2023-03-04T06:37:33;99676.66;;;0.76;95.32
55759;BME280;41678;52.126;20.664;2023-03-04T06:42:53;99675.81;;;0.77;95.45
55759;BME280;41678;52.126;20.664;2023-03-04T06:48:12;99680.16;;;0.78;95.50
55759;BME280;41678;52.126;20.664;2023-03-04T06:53:32;99681.06;;;0.81;95.52
55759;BME280;41678;52.126;20.664;2023-03-04T06:58:51;99670.66;;;0.78;95.54
55759;BME280;41678;52.126;20.664;2023-03-04T07:04:12;99670.69;;;0.80;95.64
55759;BME280;41678;52.126;20.664;2023-03-04T07:09:32;99677.72;;;0.86;95.26
55759;BME280;41678;52.126;20.664;2023-03-04T07:14:53;99678.53;;;0.83;95.10
55759;BME280;41678;52.126;20.664;2023-03-04T07:20:12;99682.06;;;0.88;95.53
55759;BME280;41678;52.126;20.664;2023-03-04T07:25:32;99682.09;;;0.90;95.58
55759;BME280;41678;52.126;20.664;2023-03-04T07:30:51;99670.00;;;0.90;95.71
55759;BME280;41678;52.126;20.664;2023-03-04T07:36:11;99663.91;;;0.88;95.46
55759;BME280;41678;52.126;20.664;2023-03-04T07:41:33;99655.28;;;0.88;95.34
55759;BME280;41678;52.126;20.664;2023-03-04T07:46:54;99662.28;;;0.93;94.85
55759;BME280;41678;52.126;20.664;2023-03-04T07:52:14;99654.53;;;0.93;95.27
55759;BME280;41678;52.126;20.664;2023-03-04T07:57:34;99648.44;;;0.93;95.04
55759;BME280;41678;52.126;20.664;2023-03-04T08:02:53;99656.28;;;0.96;95.12
55759;BME280;41678;52.126;20.664;2023-03-04T08:08:12;99646.78;;;0.96;94.73
55759;BME280;41678;52.126;20.664;2023-03-04T08:13:33;99643.38;;;0.99;94.96
55759;BME280;41678;52.126;20.664;2023-03-04T08:18:55;99647.69;;;0.98;94.97
55759;BME280;41678;52.126;20.664;2023-03-04T08:24:17;99640.81;;;1.01;95.20
55759;BME280;41678;52.126;20.664;2023-03-04T08:29:36;99633.91;;;1.03;94.97
55759;BME280;41678;52.126;20.664;2023-03-04T08:34:55;99632.22;;;1.03;94.89
55759;BME280;41678;52.126;20.664;2023-03-04T08:40:15;99626.19;;;1.06;94.54
55759;BME280;41678;52.126;20.664;2023-03-04T08:45:35;99625.38;;;1.07;94.56
55759;BME280;41678;52.126;20.664;2023-03-04T08:50:55;99635.78;;;1.10;94.83
55759;BME280;41678;52.126;20.664;2023-03-04T08:56:17;99621.97;;;1.12;95.05
55759;BME280;41678;52.126;20.664;2023-03-04T09:01:36;99617.63;;;1.10;95.08
55759;BME280;41678;52.126;20.664;2023-03-04T09:06:56;99628.09;;;1.16;95.08
55759;BME280;41678;52.126;20.664;2023-03-04T09:12:15;99610.75;;;1.12;95.27
55759;BME280;41678;52.126;20.664;2023-03-04T09:17:35;99607.38;;;1.18;94.61
55759;BME280;41678;52.126;20.664;2023-03-04T09:22:54;99599.59;;;1.19;94.90
55759;BME280;41678;52.126;20.664;2023-03-04T09:28:15;99585.78;;;1.19;95.07
55759;BME280;41678;52.126;20.664;2023-03-04T09:33:35;99578.09;;;1.23;94.84
55759;BME280;41678;52.126;20.664;2023-03-04T09:38:58;99571.25;;;1.30;94.98
55759;BME280;41678;52.126;20.664;2023-03-04T09:44:22;99574.84;;;1.40;95.15
55759;BME280;41678;52.126;20.664;2023-03-04T09:49:47;99558.44;;;1.41;94.66
55759;BME280;41678;52.126;20.664;2023-03-04T09:55:27;99572.34;;;1.46;94.70
55759;BME280;41678;52.126;20.664;2023-03-04T10:01:16;99556.06;;;1.57;95.02
55759;BME280;41678;52.126;20.664;2023-03-04T10:06:39;99542.19;;;1.56;94.95
55759;BME280;41678;52.126;20.664;2023-03-04T10:12:04;99542.34;;;1.67;94.82
55759;BME280;41678;52.126;20.664;2023-03-04T10:17:40;99532.00;;;1.70;94.75
55759;BME280;41678;52.126;20.664;2023-03-04T10:23:08;99526.91;;;1.79;94.62
55759;BME280;41678;52.126;20.664;2023-03-04T10:28:29;99533.03;;;1.83;94.77
55759;BME280;41678;52.126;20.664;2023-03-04T10:33:49;99526.97;;;1.84;94.58
55759;BME280;41678;52.126;20.664;2023-03-04T10:39:37;99517.56;;;1.94;94.46
55759;BME280;41678;52.126;20.664;2023-03-04T10:44:58;99509.84;;;2.02;95.14
55759;BME280;41678;52.126;20.664;2023-03-04T10:50:27;99496.88;;;2.00;94.33
55759;BME280;41678;52.126;20.664;2023-03-04T10:55:47;99501.34;;;2.15;94.49
55759;BME280;41678;52.126;20.664;2023-03-04T11:01:14;99491.88;;;2.22;94.15
55759;BME280;41678;52.126;20.664;2023-03-04T11:06:39;99492.78;;;2.27;94.50
55759;BME280;41678;52.126;20.664;2023-03-04T11:12:01;99496.31;;;2.34;94.63
55759;BME280;41678;52.126;20.664;2023-03-04T11:22:40;99496.44;;;2.45;94.79
55759;BME280;41678;52.126;20.664;2023-03-04T11:28:27;99486.91;;;2.48;94.92
55759;BME280;41678;52.126;20.664;2023-03-04T11:34:00;99473.13;;;2.52;94.81
55759;BME280;41678;52.126;20.664;2023-03-04T11:39:56;99464.38;;;2.44;94.57
55759;BME280;41678;52.126;20.664;2023-03-04T11:45:24;99468.78;;;2.54;94.86
55759;BME280;41678;52.126;20.664;2023-03-04T11:50:52;99473.13;;;2.57;94.70
55759;BME280;41678;52.126;20.664;2023-03-04T12:02:19;99463.63;;;2.61;94.97
55759;BME280;41678;52.126;20.664;2023-03-04T12:08:02;99458.47;;;2.62;95.16
55759;BME280;41678;52.126;20.664;2023-03-04T12:13:51;99456.72;;;2.63;95.12
55759;BME280;41678;52.126;20.664;2023-03-04T12:25:23;99436.81;;;2.66;94.98
55759;BME280;41678;52.126;20.664;2023-03-04T12:47:54;99450.59;;;2.56;96.45
55759;BME280;41678;52.126;20.664;2023-03-04T12:54:37;99468.81;;;2.58;96.75
55759;BME280;41678;52.126;20.664;2023-03-04T13:10:52;99448.81;;;2.49;97.08
55759;BME280;41678;52.126;20.664;2023-03-04T13:21:44;99448.69;;;2.33;96.49
55759;BME280;41678;52.126;20.664;2023-03-04T13:50:36;99432.88;;;2.07;96.68
55759;BME280;41678;52.126;20.664;2023-03-04T13:56:17;99439.88;;;2.17;96.59
55759;BME280;41678;52.126;20.664;2023-03-04T14:07:03;99446.81;;;2.17;96.27
55759;BME280;41678;52.126;20.664;2023-03-04T14:12:38;99442.50;;;2.16;96.55
55759;BME280;41678;52.126;20.664;2023-03-04T14:18:01;99436.41;;;2.14;96.27
55759;BME280;41678;52.126;20.664;2023-03-04T14:23:32;99432.09;;;2.12;96.37
55759;BME280;41678;52.126;20.664;2023-03-04T14:28:52;99432.09;;;2.16;96.35
55759;BME280;41678;52.126;20.664;2023-03-04T14:34:36;99435.56;;;2.16;96.11
55759;BME280;41678;52.126;20.664;2023-03-04T14:39:57;99432.94;;;2.16;95.77
55759;BME280;41678;52.126;20.664;2023-03-04T14:45:17;99439.00;;;2.12;96.26
55759;BME280;41678;52.126;20.664;2023-03-04T14:50:47;99439.78;;;2.06;96.04
55759;BME280;41678;52.126;20.664;2023-03-04T14:56:08;99451.94;;;2.10;96.01
55759;BME280;41678;52.126;20.664;2023-03-04T15:01:31;99454.59;;;2.15;95.82
55759;BME280;41678;52.126;20.664;2023-03-04T15:06:52;99458.88;;;2.11;96.05
55759;BME280;41678;52.126;20.664;2023-03-04T15:12:12;99456.25;;;2.08;95.89
55759;BME280;41678;52.126;20.664;2023-03-04T15:17:35;99466.72;;;2.15;95.70
55759;BME280;41678;52.126;20.664;2023-03-04T15:23:01;99472.72;;;2.10;95.09
55759;BME280;41678;52.126;20.664;2023-03-04T15:28:22;99480.53;;;2.12;93.71
55759;BME280;41678;52.126;20.664;2023-03-04T15:33:42;99479.72;;;2.15;91.80
55759;BME280;41678;52.126;20.664;2023-03-04T15:39:01;99489.19;;;2.11;90.65
55759;BME280;41678;52.126;20.664;2023-03-04T15:44:22;99496.03;;;2.04;86.67
55759;BME280;41678;52.126;20.664;2023-03-04T15:49:43;99536.69;;;2.01;86.80
55759;BME280;41678;52.126;20.664;2023-03-04T15:55:06;99552.19;;;1.96;85.99
55759;BME280;41678;52.126;20.664;2023-03-04T16:00:26;99566.81;;;1.88;83.15
55759;BME280;41678;52.126;20.664;2023-03-04T16:05:48;99565.00;;;1.79;82.61
55759;BME280;41678;52.126;20.664;2023-03-04T16:11:18;99556.13;;;1.63;82.75
55759;BME280;41678;52.126;20.664;2023-03-04T16:16:39;99577.63;;;1.54;81.99
55759;BME280;41678;52.126;20.664;2023-03-04T16:21:59;99615.59;;;1.46;80.99
55759;BME280;41678;52.126;20.664;2023-03-04T16:27:18;99626.59;;;1.29;79.97
55759;BME280;41678;52.126;20.664;2023-03-04T16:32:40;99639.41;;;1.21;80.52
55759;BME280;41678;52.126;20.664;2023-03-04T16:38:00;99651.34;;;1.10;80.06
55759;BME280;41678;52.126;20.664;2023-03-04T16:43:21;99667.56;;;0.99;78.32
55759;BME280;41678;52.126;20.664;2023-03-04T16:48:41;99674.31;;;0.90;78.46
55759;BME280;41678;52.126;20.664;2023-03-04T16:54:00;99679.28;;;0.77;78.07
55759;BME280;41678;52.126;20.664;2023-03-04T16:59:20;99687.84;;;0.73;78.97
55759;BME280;41678;52.126;20.664;2023-03-04T17:04:40;99707.53;;;0.65;79.50
55759;BME280;41678;52.126;20.664;2023-03-04T17:10:00;99716.84;;;0.53;80.69
55759;BME280;41678;52.126;20.664;2023-03-04T17:15:19;99725.41;;;0.51;80.20
55759;BME280;41678;52.126;20.664;2023-03-04T17:20:39;99736.47;;;0.42;80.04
55759;BME280;41678;52.126;20.664;2023-03-04T17:25:59;99747.53;;;0.35;80.14
55759;BME280;41678;52.126;20.664;2023-03-04T17:31:19;99757.88;;;0.33;79.91
55759;BME280;41678;52.126;20.664;2023-03-04T17:36:39;99762.78;;;0.22;78.95
55759;BME280;41678;52.126;20.664;2023-03-04T17:41:58;99755.63;;;0.10;78.13
55759;BME280;41678;52.126;20.664;2023-03-04T17:47:18;99770.19;;;0.05;77.92
55759;BME280;41678;52.126;20.664;2023-03-04T17:52:37;99774.41;;;0.02;78.17
55759;BME280;41678;52.126;20.664;2023-03-04T17:57:57;99792.47;;;-0.02;77.75
55759;BME280;41678;52.126;20.664;2023-03-04T18:03:17;99789.63;;;-0.12;77.16
55759;BME280;41678;52.126;20.664;2023-03-04T18:08:36;99786.81;;;-0.22;77.93
55759;BME280;41678;52.126;20.664;2023-03-04T18:13:56;99813.59;;;-0.20;77.36
55759;BME280;41678;52.126;20.664;2023-03-04T18:19:15;99814.25;;;-0.29;77.48
55759;BME280;41678;52.126;20.664;2023-03-04T18:24:35;99817.63;;;-0.31;76.82
55759;BME280;41678;52.126;20.664;2023-03-04T18:29:58;99815.81;;;-0.35;77.42
55759;BME280;41678;52.126;20.664;2023-03-04T18:35:20;99826.84;;;-0.43;76.30
55759;BME280;41678;52.126;20.664;2023-03-04T18:40:41;99830.28;;;-0.44;75.66
55759;BME280;41678;52.126;20.664;2023-03-04T18:46:47;99832.53;;;-0.56;75.22
55759;BME280;41678;52.126;20.664;2023-03-04T18:51:47;99841.13;;;-0.57;75.05
55759;BME280;41678;52.126;20.664;2023-03-04T18:57:11;99847.00;;;-0.63;75.27
55759;BME280;41678;52.126;20.664;2023-03-04T19:08:10;99847.59;;;-0.73;74.30
55759;BME280;41678;52.126;20.664;2023-03-04T19:13:30;99861.22;;;-0.79;75.83
55759;BME280;41678;52.126;20.664;2023-03-04T19:18:52;99865.63;;;-0.76;75.02
55759;BME280;41678;52.126;20.664;2023-03-04T19:24:11;99873.22;;;-0.81;74.50
55759;BME280;41678;52.126;20.664;2023-03-04T19:29:31;99870.50;;;-0.87;74.82
55759;BME280;41678;52.126;20.664;2023-03-04T19:34:51;99878.06;;;-0.93;75.69
55759;BME280;41678;52.126;20.664;2023-03-04T19:40:11;99892.84;;;-0.89;75.53
55759;BME280;41678;52.126;20.664;2023-03-04T19:45:30;99888.97;;;-1.04;75.89
55759;BME280;41678;52.126;20.664;2023-03-04T19:50:50;99896.72;;;-1.04;76.32
55759;BME280;41678;52.126;20.664;2023-03-04T19:56:10;99888.06;;;-1.06;76.01
55759;BME280;41678;52.126;20.664;2023-03-04T20:01:32;99905.19;;;-1.08;76.39
55759;BME280;41678;52.126;20.664;2023-03-04T20:06:52;99897.09;;;-1.20;75.99
55759;BME280;41678;52.126;20.664;2023-03-04T20:12:11;99897.81;;;-1.24;76.62
55759;BME280;41678;52.126;20.664;2023-03-04T20:17:31;99904.66;;;-1.26;76.92
55759;BME280;41678;52.126;20.664;2023-03-04T20:22:50;99904.66;;;-1.26;77.02
55759;BME280;41678;52.126;20.664;2023-03-04T20:28:10;99911.25;;;-1.36;77.66
55759;BME280;41678;52.126;20.664;2023-03-04T20:33:30;99916.28;;;-1.41;77.67
55759;BME280;41678;52.126;20.664;2023-03-04T20:38:50;99911.00;;;-1.44;77.55
55759;BME280;41678;52.126;20.664;2023-03-04T20:44:09;99899.63;;;-1.51;77.82
55759;BME280;41678;52.126;20.664;2023-03-04T20:49:30;99915.78;;;-1.57;78.21
55759;BME280;41678;52.126;20.664;2023-03-04T20:54:49;99904.28;;;-1.66;78.68
55759;BME280;41678;52.126;20.664;2023-03-04T21:00:09;99908.47;;;-1.70;78.47
55759;BME280;41678;52.126;20.664;2023-03-04T21:05:29;99908.56;;;-1.67;78.48
55759;BME280;41678;52.126;20.664;2023-03-04T21:10:49;99901.28;;;-1.80;78.57
55759;BME280;41678;52.126;20.664;2023-03-04T21:16:15;99911.56;;;-1.82;78.92
55759;BME280;41678;52.126;20.664;2023-03-04T21:21:35;99897.38;;;-1.95;79.32
55759;BME280;41678;52.126;20.664;2023-03-04T21:26:54;99906.91;;;-1.92;78.78
55759;BME280;41678;52.126;20.664;2023-03-04T21:32:24;99915.56;;;-1.90;78.77
55759;BME280;41678;52.126;20.664;2023-03-04T21:37:45;99905.72;;;-2.02;79.26
55759;BME280;41678;52.126;20.664;2023-03-04T21:43:05;99894.28;;;-2.10;79.68
55759;BME280;41678;52.126;20.664;2023-03-04T21:48:25;99897.56;;;-2.15;79.70
55759;BME280;41678;52.126;20.664;2023-03-04T21:53:44;99901.81;;;-2.17;79.42
55759;BME280;41678;52.126;20.664;2023-03-04T21:59:09;99905.13;;;-2.21;79.94
55759;BME280;41678;52.126;20.664;2023-03-04T22:04:29;99901.38;;;-2.29;79.94
55759;BME280;41678;52.126;20.664;2023-03-04T22:09:48;99900.44;;;-2.33;80.27
55759;BME280;41678;52.126;20.664;2023-03-04T22:15:08;99899.25;;;-2.41;80.05
55759;BME280;41678;52.126;20.664;2023-03-04T22:20:29;99900.66;;;-2.51;79.93
55759;BME280;41678;52.126;20.664;2023-03-04T22:25:51;99905.72;;;-2.54;79.84
55759;BME280;41678;52.126;20.664;2023-03-04T22:31:25;99898.81;;;-2.55;80.38
55759;BME280;41678;52.126;20.664;2023-03-04T22:36:48;99900.56;;;-2.54;80.16
55759;BME280;41678;52.126;20.664;2023-03-04T22:42:07;99895.06;;;-2.63;80.20
55759;BME280;41678;52.126;20.664;2023-03-04T22:47:29;99892.00;;;-2.77;80.44
55759;BME280;41678;52.126;20.664;2023-03-04T22:52:49;99898.13;;;-2.74;80.27
55759;BME280;41678;52.126;20.664;2023-03-04T22:58:09;99887.59;;;-2.80;80.50
55759;BME280;41678;52.126;20.664;2023-03-04T23:03:29;99896.91;;;-2.83;80.44
55759;BME280;41678;52.126;20.664;2023-03-04T23:08:50;99897.69;;;-2.86;80.55
55759;BME280;41678;52.126;20.664;2023-03-04T23:14:10;99885.28;;;-2.96;81.04
55759;BME280;41678;52.126;20.664;2023-03-04T23:19:30;99888.69;;;-2.97;80.94
55759;BME280;41678;52.126;20.664;2023-03-04T23:24:50;99884.09;;;-3.06;80.73
55759;BME280;41678;52.126;20.664;2023-03-04T23:30:14;99896.25;;;-3.02;81.13
55759;BME280;41678;52.126;20.664;2023-03-04T23:35:34;99893.50;;;-3.07;81.33
55759;BME280;41678;52.126;20.664;2023-03-04T23:40:53;99893.50;;;-3.07;81.01
55759;BME280;41678;52.126;20.664;2023-03-04T23:46:13;99894.09;;;-3.14;81.12
55759;BME280;41678;52.126;20.664;2023-03-04T23:51:33;99880.81;;;-3.25;81.09
55759;BME280;41678;52.126;20.664;2023-03-04T23:56:53;99885.91;;;-3.27;81.20
